Welcome to Des Moines Iowa Weather. I am an independent private personal weather station on the Northwest Side of Des Moines, Iowa. Just East of Windsor Heights and just West of Glendale . This site is also mobile friendly.

There are no active watches, warnings or advisories


Visit our other weather sites:

Historical Data

Weather Station Setup



Weather Underground History page Text

Daily Summary for February 16, 2018 Units:  Both    English   Metric
« Previous Day
Next Day »
Daily Weekly Monthly Yearly Custom
  High: Low: Average:
Temperature: 25.4 °F /  -3.7 °C 8.1 °F /  -13.3 °C 18.4 °F /  -7.6 °C
Dew Point: 19.0 °F /  -7.2 °C -1.0 °F /  -18.3 °C 7 °F /  -13.9 °C
Humidity: 83 % 45 % 62 %
Wind Speed: 11.0 mph /  17.7 km/h - 3.1 mph /  5 km/h
Wind Gust: 17.0 mph /  27.4 km/h - -
Wind:- - West
Pressure: 30.51 in /  1033.1 hPa 30.18 in /  1021.9 hPa -
Precipitation: 0.00 in /  0 mm    
Historical Graphs
 
 
Tabular Data for February 16, 2018
Time Temperature Dew Point Pressure Wind Wind Speed Wind Gust Humidity Rainfall Rate (Hourly)
00:02 24.2 °F /  -4.3 °C 19.0 °F /  -7.2 °C 30.19 in /  1022.2 hPa North 11.0 mph /  17.7 km/h 14.0 mph /  22.5 km/h 82 % 0.00 in /  0 mm
00:17 23.2 °F /  -4.9 °C 19.0 °F /  -7.2 °C 30.18 in /  1021.9 hPa North 9.0 mph /  14.5 km/h 12.0 mph /  19.3 km/h 82 % 0.00 in /  0 mm
00:32 21.8 °F /  -5.7 °C 17.0 °F /  -8.3 °C 30.20 in /  1022.6 hPa North 1.0 mph /  1.6 km/h 17.0 mph /  27.4 km/h 82 % 0.00 in /  0 mm
00:47 20.9 °F /  -6.2 °C 16.0 °F /  -8.9 °C 30.21 in /  1022.9 hPa North 11.0 mph /  17.7 km/h 15.0 mph /  24.1 km/h 81 % 0.00 in /  0 mm
01:02 20.4 °F /  -6.4 °C 16.0 °F /  -8.9 °C 30.23 in /  1023.6 hPa North 3.0 mph /  4.8 km/h 14.0 mph /  22.5 km/h 82 % 0.00 in /  0 mm
01:18 20.2 °F /  -6.6 °C 16.0 °F /  -8.9 °C 30.24 in /  1023.9 hPa North 2.0 mph /  3.2 km/h 16.0 mph /  25.7 km/h 82 % 0.00 in /  0 mm
01:33 20.1 °F /  -6.6 °C 16.0 °F /  -8.9 °C 30.25 in /  1024.3 hPa North 8.0 mph /  12.9 km/h 11.0 mph /  17.7 km/h 83 % 0.00 in /  0 mm
01:48 19.9 °F /  -6.7 °C 16.0 °F /  -8.9 °C 30.26 in /  1024.6 hPa North 8.0 mph /  12.9 km/h 13.0 mph /  20.9 km/h 83 % 0.00 in /  0 mm
02:03 19.7 °F /  -6.8 °C 15.0 °F /  -9.4 °C 30.28 in /  1025.3 hPa North 4.0 mph /  6.4 km/h 11.0 mph /  17.7 km/h 82 % 0.00 in /  0 mm
02:18 19.2 °F /  -7.1 °C 14.0 °F /  -10 °C 30.29 in /  1025.6 hPa North 11.0 mph /  17.7 km/h 16.0 mph /  25.7 km/h 81 % 0.00 in /  0 mm
02:34 18.6 °F /  -7.4 °C 12.0 °F /  -11.1 °C 30.31 in /  1026.3 hPa North 11.0 mph /  17.7 km/h 13.0 mph /  20.9 km/h 75 % 0.00 in /  0 mm
02:48 17.5 °F /  -8.1 °C 8.0 °F /  -13.3 °C 30.32 in /  1026.6 hPa North 4.0 mph /  6.4 km/h 16.0 mph /  25.7 km/h 67 % 0.00 in /  0 mm
03:04 16.8 °F /  -8.4 °C 6.0 °F /  -14.4 °C 30.33 in /  1027 hPa North 9.0 mph /  14.5 km/h 14.0 mph /  22.5 km/h 63 % 0.00 in /  0 mm
03:20 16.1 °F /  -8.8 °C 4.0 °F /  -15.6 °C 30.33 in /  1027 hPa North 5.0 mph /  8 km/h 11.0 mph /  17.7 km/h 60 % 0.00 in /  0 mm
03:33 15.1 °F /  -9.4 °C 2.0 °F /  -16.7 °C 30.33 in /  1027 hPa North 10.0 mph /  16.1 km/h 17.0 mph /  27.4 km/h 57 % 0.00 in /  0 mm
03:48 14.8 °F /  -9.6 °C 3.0 °F /  -16.1 °C 30.34 in /  1027.3 hPa North 10.0 mph /  16.1 km/h 13.0 mph /  20.9 km/h 59 % 0.00 in /  0 mm
04:03 14.2 °F /  -9.9 °C 1.0 °F /  -17.2 °C 30.35 in /  1027.7 hPa North 8.0 mph /  12.9 km/h 17.0 mph /  27.4 km/h 57 % 0.00 in /  0 mm
04:18 13.8 °F /  -10.1 °C 3.0 °F /  -16.1 °C 30.35 in /  1027.7 hPa North 8.0 mph /  12.9 km/h 11.0 mph /  17.7 km/h 61 % 0.00 in /  0 mm
04:33 13.2 °F /  -10.4 °C 3.0 °F /  -16.1 °C 30.36 in /  1028 hPa North 4.0 mph /  6.4 km/h 11.0 mph /  17.7 km/h 64 % 0.00 in /  0 mm
04:48 12.7 °F /  -10.7 °C 3.0 °F /  -16.1 °C 30.37 in /  1028.3 hPa North 3.0 mph /  4.8 km/h 13.0 mph /  20.9 km/h 64 % 0.00 in /  0 mm
05:03 11.9 °F /  -11.2 °C 1.0 °F /  -17.2 °C 30.39 in /  1029 hPa North 8.0 mph /  12.9 km/h 13.0 mph /  20.9 km/h 62 % 0.00 in /  0 mm
05:18 11.5 °F /  -11.4 °C 0.0 °F /  -17.8 °C 30.39 in /  1029 hPa North 6.0 mph /  9.7 km/h 13.0 mph /  20.9 km/h 61 % 0.00 in /  0 mm
05:33 11.1 °F /  -11.6 °C 0.0 °F /  -17.8 °C 30.40 in /  1029.3 hPa North 2.0 mph /  3.2 km/h 10.0 mph /  16.1 km/h 62 % 0.00 in /  0 mm
05:48 10.8 °F /  -11.8 °C 1.0 °F /  -17.2 °C 30.41 in /  1029.7 hPa North 9.0 mph /  14.5 km/h 10.0 mph /  16.1 km/h 65 % 0.00 in /  0 mm
06:04 10.1 °F /  -12.2 °C 0.0 °F /  -17.8 °C 30.42 in /  1030 hPa North 10.0 mph /  16.1 km/h 12.0 mph /  19.3 km/h 64 % 0.00 in /  0 mm
06:19 9.6 °F /  -12.4 °C 0.0 °F /  -17.8 °C 30.42 in /  1030 hPa North 8.0 mph /  12.9 km/h 16.0 mph /  25.7 km/h 64 % 0.00 in /  0 mm
06:34 9.0 °F /  -12.8 °C -1.0 °F /  -18.3 °C 30.43 in /  1030.4 hPa North 5.0 mph /  8 km/h 11.0 mph /  17.7 km/h 64 % 0.00 in /  0 mm
06:49 8.6 °F /  -13 °C -1.0 °F /  -18.3 °C 30.44 in /  1030.7 hPa North 4.0 mph /  6.4 km/h 11.0 mph /  17.7 km/h 66 % 0.00 in /  0 mm
07:04 8.4 °F /  -13.1 °C -1.0 °F /  -18.3 °C 30.45 in /  1031 hPa North 2.0 mph /  3.2 km/h 13.0 mph /  20.9 km/h 66 % 0.00 in /  0 mm
07:19 8.2 °F /  -13.2 °C -1.0 °F /  -18.3 °C 30.45 in /  1031 hPa North 6.0 mph /  9.7 km/h 13.0 mph /  20.9 km/h 67 % 0.00 in /  0 mm
07:34 8.1 °F /  -13.3 °C 0.0 °F /  -17.8 °C 30.46 in /  1031.4 hPa North 2.0 mph /  3.2 km/h 9.0 mph /  14.5 km/h 69 % 0.00 in /  0 mm
07:49 8.1 °F /  -13.3 °C 0.0 °F /  -17.8 °C 30.47 in /  1031.7 hPa North 2.0 mph /  3.2 km/h 11.0 mph /  17.7 km/h 69 % 0.00 in /  0 mm
08:04 8.2 °F /  -13.2 °C 0.0 °F /  -17.8 °C 30.47 in /  1031.7 hPa North 5.0 mph /  8 km/h 10.0 mph /  16.1 km/h 69 % 0.00 in /  0 mm
08:19 8.5 °F /  -13.1 °C 0.0 °F /  -17.8 °C 30.48 in /  1032.1 hPa North 6.0 mph /  9.7 km/h 12.0 mph /  19.3 km/h 69 % 0.00 in /  0 mm
08:34 9.1 °F /  -12.7 °C 1.0 °F /  -17.2 °C 30.49 in /  1032.4 hPa North 5.0 mph /  8 km/h 13.0 mph /  20.9 km/h 68 % 0.00 in /  0 mm
08:49 10.0 °F /  -12.2 °C 0.0 °F /  -17.8 °C 30.49 in /  1032.4 hPa North 8.0 mph /  12.9 km/h 11.0 mph /  17.7 km/h 65 % 0.00 in /  0 mm
09:04 10.5 °F /  -11.9 °C 0.0 °F /  -17.8 °C 30.49 in /  1032.4 hPa North 5.0 mph /  8 km/h 14.0 mph /  22.5 km/h 63 % 0.00 in /  0 mm
09:20 10.9 °F /  -11.7 °C 0.0 °F /  -17.8 °C 30.50 in /  1032.7 hPa North 2.0 mph /  3.2 km/h 10.0 mph /  16.1 km/h 62 % 0.00 in /  0 mm
09:35 11.4 °F /  -11.4 °C 1.0 °F /  -17.2 °C 30.50 in /  1032.7 hPa North 4.0 mph /  6.4 km/h 11.0 mph /  17.7 km/h 62 % 0.00 in /  0 mm
09:50 11.8 °F /  -11.2 °C 1.0 °F /  -17.2 °C 30.51 in /  1033.1 hPa North 2.0 mph /  3.2 km/h 11.0 mph /  17.7 km/h 61 % 0.00 in /  0 mm
10:05 12.6 °F /  -10.8 °C 0.0 °F /  -17.8 °C 30.50 in /  1032.7 hPa North 1.0 mph /  1.6 km/h 11.0 mph /  17.7 km/h 58 % 0.00 in /  0 mm
10:20 13.4 °F /  -10.3 °C 1.0 °F /  -17.2 °C 30.50 in /  1032.7 hPa North 4.0 mph /  6.4 km/h 9.0 mph /  14.5 km/h 57 % 0.00 in /  0 mm
10:35 13.4 °F /  -10.3 °C 0.0 °F /  -17.8 °C 30.50 in /  1032.7 hPa North 2.0 mph /  3.2 km/h 10.0 mph /  16.1 km/h 56 % 0.00 in /  0 mm
10:50 14.1 °F /  -9.9 °C 1.0 °F /  -17.2 °C 30.50 in /  1032.7 hPa North 2.0 mph /  3.2 km/h 8.0 mph /  12.9 km/h 56 % 0.00 in /  0 mm
11:05 15.2 °F /  -9.3 °C 2.0 °F /  -16.7 °C 30.50 in /  1032.7 hPa North 5.0 mph /  8 km/h 8.0 mph /  12.9 km/h 56 % 0.00 in /  0 mm
11:20 15.5 °F /  -9.2 °C 3.0 °F /  -16.1 °C 30.50 in /  1032.7 hPa North 4.0 mph /  6.4 km/h 8.0 mph /  12.9 km/h 57 % 0.00 in /  0 mm
11:35 15.8 °F /  -9 °C 3.0 °F /  -16.1 °C 30.50 in /  1032.7 hPa North 3.0 mph /  4.8 km/h 9.0 mph /  14.5 km/h 56 % 0.00 in /  0 mm
11:50 15.9 °F /  -8.9 °C 3.0 °F /  -16.1 °C 30.49 in /  1032.4 hPa NNE 1.0 mph /  1.6 km/h 8.0 mph /  12.9 km/h 58 % 0.00 in /  0 mm
12:05 17.1 °F /  -8.3 °C 5.0 °F /  -15 °C 30.48 in /  1032.1 hPa NNE 2.0 mph /  3.2 km/h 6.0 mph /  9.7 km/h 58 % 0.00 in /  0 mm
12:20 18.7 °F /  -7.4 °C 4.0 °F /  -15.6 °C 30.47 in /  1031.7 hPa North 4.0 mph /  6.4 km/h 8.0 mph /  12.9 km/h 54 % 0.00 in /  0 mm
12:36 19.1 °F /  -7.2 °C 5.0 °F /  -15 °C 30.46 in /  1031.4 hPa Calm   8.0 mph /  12.9 km/h 54 % 0.00 in /  0 mm
12:51 19.9 °F /  -6.7 °C 5.0 °F /  -15 °C 30.46 in /  1031.4 hPa North 2.0 mph /  3.2 km/h 4.0 mph /  6.4 km/h 53 % 0.00 in /  0 mm
13:06 20.8 °F /  -6.2 °C 6.0 °F /  -14.4 °C 30.45 in /  1031 hPa North 3.0 mph /  4.8 km/h 6.0 mph /  9.7 km/h 53 % 0.00 in /  0 mm
13:21 21.5 °F /  -5.8 °C 6.0 °F /  -14.4 °C 30.43 in /  1030.4 hPa North 1.0 mph /  1.6 km/h 8.0 mph /  12.9 km/h 51 % 0.00 in /  0 mm
13:36 21.8 °F /  -5.7 °C 7.0 °F /  -13.9 °C 30.43 in /  1030.4 hPa North 3.0 mph /  4.8 km/h 3.0 mph /  4.8 km/h 52 % 0.00 in /  0 mm
13:51 23.0 °F /  -5 °C 6.0 °F /  -14.4 °C 30.42 in /  1030 hPa Calm   5.0 mph /  8 km/h 48 % 0.00 in /  0 mm
14:06 23.6 °F /  -4.7 °C 5.0 °F /  -15 °C 30.42 in /  1030 hPa Calm   5.0 mph /  8 km/h 46 % 0.00 in /  0 mm
14:21 24.4 °F /  -4.2 °C 6.0 °F /  -14.4 °C 30.42 in /  1030 hPa North 4.0 mph /  6.4 km/h 5.0 mph /  8 km/h 45 % 0.00 in /  0 mm
14:42 23.6 °F /  -4.7 °C 5.0 °F /  -15 °C 30.41 in /  1029.7 hPa SSE 2.0 mph /  3.2 km/h 7.0 mph /  11.3 km/h 46 % 0.00 in /  0 mm
14:51 23.7 °F /  -4.6 °C 6.0 °F /  -14.4 °C 30.40 in /  1029.3 hPa SW 4.0 mph /  6.4 km/h 4.0 mph /  6.4 km/h 47 % 0.00 in /  0 mm
15:11 24.2 °F /  -4.3 °C 6.0 °F /  -14.4 °C 30.39 in /  1029 hPa Calm   4.0 mph /  6.4 km/h 46 % 0.00 in /  0 mm
15:25 24.7 °F /  -4.1 °C 7.0 °F /  -13.9 °C 30.39 in /  1029 hPa Calm   3.0 mph /  4.8 km/h 46 % 0.00 in /  0 mm
15:36 24.7 °F /  -4.1 °C 7.0 °F /  -13.9 °C 30.38 in /  1028.7 hPa Calm   3.0 mph /  4.8 km/h 47 % 0.00 in /  0 mm
15:51 25.1 °F /  -3.8 °C 7.0 °F /  -13.9 °C 30.37 in /  1028.3 hPa West 3.0 mph /  4.8 km/h 3.0 mph /  4.8 km/h 47 % 0.00 in /  0 mm
16:07 25.2 °F /  -3.8 °C 8.0 °F /  -13.3 °C 30.37 in /  1028.3 hPa WSW 4.0 mph /  6.4 km/h 4.0 mph /  6.4 km/h 49 % 0.00 in /  0 mm
16:22 25.4 °F /  -3.7 °C 9.0 °F /  -12.8 °C 30.36 in /  1028 hPa Calm   3.0 mph /  4.8 km/h 50 % 0.00 in /  0 mm
16:37 25.3 °F /  -3.7 °C 9.0 °F /  -12.8 °C 30.35 in /  1027.7 hPa South 2.0 mph /  3.2 km/h 3.0 mph /  4.8 km/h 51 % 0.00 in /  0 mm
16:52 25.4 °F /  -3.7 °C 10.0 °F /  -12.2 °C 30.34 in /  1027.3 hPa Calm   3.0 mph /  4.8 km/h 52 % 0.00 in /  0 mm
17:07 25.4 °F /  -3.7 °C 11.0 °F /  -11.7 °C 30.32 in /  1026.6 hPa South 2.0 mph /  3.2 km/h 3.0 mph /  4.8 km/h 54 % 0.00 in /  0 mm
17:22 25.3 °F /  -3.7 °C 11.0 °F /  -11.7 °C 30.32 in /  1026.6 hPa Calm   4.0 mph /  6.4 km/h 54 % 0.00 in /  0 mm
17:37 25.1 °F /  -3.8 °C 11.0 °F /  -11.7 °C 30.33 in /  1027 hPa Calm   4.0 mph /  6.4 km/h 55 % 0.00 in /  0 mm
17:52 24.7 °F /  -4.1 °C 11.0 °F /  -11.7 °C 30.32 in /  1026.6 hPa Calm   2.0 mph /  3.2 km/h 57 % 0.00 in /  0 mm
18:07 24.3 °F /  -4.3 °C 11.0 °F /  -11.7 °C 30.32 in /  1026.6 hPa Calm     57 % 0.00 in /  0 mm
18:22 24.1 °F /  -4.4 °C 11.0 °F /  -11.7 °C 30.32 in /  1026.6 hPa Calm   1.0 mph /  1.6 km/h 58 % 0.00 in /  0 mm
18:37 23.7 °F /  -4.6 °C 11.0 °F /  -11.7 °C 30.31 in /  1026.3 hPa Calm     59 % 0.00 in /  0 mm
18:52 23.3 °F /  -4.8 °C 11.0 °F /  -11.7 °C 30.32 in /  1026.6 hPa Calm     60 % 0.00 in /  0 mm
19:07 22.7 °F /  -5.2 °C 11.0 °F /  -11.7 °C 30.32 in /  1026.6 hPa Calm     61 % 0.00 in /  0 mm
19:22 22.2 °F /  -5.4 °C 11.0 °F /  -11.7 °C 30.30 in /  1026 hPa Calm     63 % 0.00 in /  0 mm
19:38 22.0 °F /  -5.6 °C 11.0 °F /  -11.7 °C 30.29 in /  1025.6 hPa Calm     64 % 0.00 in /  0 mm
19:53 21.8 °F /  -5.7 °C 12.0 °F /  -11.1 °C 30.28 in /  1025.3 hPa Calm     65 % 0.00 in /  0 mm
20:08 21.8 °F /  -5.7 °C 12.0 °F /  -11.1 °C 30.27 in /  1024.9 hPa Calm     65 % 0.00 in /  0 mm
20:23 21.5 °F /  -5.8 °C 11.0 °F /  -11.7 °C 30.26 in /  1024.6 hPa South 1.0 mph /  1.6 km/h 1.0 mph /  1.6 km/h 65 % 0.00 in /  0 mm
20:38 21.2 °F /  -6 °C 11.0 °F /  -11.7 °C 30.26 in /  1024.6 hPa Calm   3.0 mph /  4.8 km/h 65 % 0.00 in /  0 mm
20:53 21.2 °F /  -6 °C 11.0 °F /  -11.7 °C 30.25 in /  1024.3 hPa Calm   3.0 mph /  4.8 km/h 65 % 0.00 in /  0 mm
21:08 21.5 °F /  -5.8 °C 11.0 °F /  -11.7 °C 30.25 in /  1024.3 hPa Calm     65 % 0.00 in /  0 mm
21:23 21.7 °F /  -5.7 °C 11.0 °F /  -11.7 °C 30.25 in /  1024.3 hPa Calm     64 % 0.00 in /  0 mm
21:38 21.8 °F /  -5.7 °C 12.0 °F /  -11.1 °C 30.25 in /  1024.3 hPa Calm   2.0 mph /  3.2 km/h 65 % 0.00 in /  0 mm
21:53 22.0 °F /  -5.6 °C 12.0 °F /  -11.1 °C 30.23 in /  1023.6 hPa Calm     65 % 0.00 in /  0 mm
22:08 22.0 °F /  -5.6 °C 12.0 °F /  -11.1 °C 30.23 in /  1023.6 hPa Calm   2.0 mph /  3.2 km/h 65 % 0.00 in /  0 mm
22:23 22.0 °F /  -5.6 °C 12.0 °F /  -11.1 °C 30.22 in /  1023.2 hPa Calm   1.0 mph /  1.6 km/h 65 % 0.00 in /  0 mm
22:38 22.1 °F /  -5.5 °C 12.0 °F /  -11.1 °C 30.21 in /  1022.9 hPa Calm   3.0 mph /  4.8 km/h 65 % 0.00 in /  0 mm
22:53 22.1 °F /  -5.5 °C 12.0 °F /  -11.1 °C 30.20 in /  1022.6 hPa Calm   1.0 mph /  1.6 km/h 65 % 0.00 in /  0 mm
23:08 22.0 °F /  -5.6 °C 12.0 °F /  -11.1 °C 30.20 in /  1022.6 hPa Calm   2.0 mph /  3.2 km/h 65 % 0.00 in /  0 mm
23:23 21.8 °F /  -5.7 °C 12.0 °F /  -11.1 °C 30.20 in /  1022.6 hPa Calm     65 % 0.00 in /  0 mm
23:38 21.7 °F /  -5.7 °C 12.0 °F /  -11.1 °C 30.21 in /  1022.9 hPa Calm   2.0 mph /  3.2 km/h 65 % 0.00 in /  0 mm
23:53 21.5 °F /  -5.8 °C 12.0 °F /  -11.1 °C 30.20 in /  1022.6 hPa Calm   2.0 mph /  3.2 km/h 66 % 0.00 in /  0 mm
Des Moines Weather and Climate
Compliments of Weather Underground - 3 mb

Script developed by  Jim McMurry - jmcmurry@mwt.net Adapted for the template by  Wim van der Kuil - Leuven-Template.eu

You find our weather info also at:

Weather Underground

Equipment we use:

Weather-station
Davis VP2 Plus

Weather-program
Davis Weatherlink.Com

Weather-server
iMac (Retina 4K, 21.5-inch, Late 2015)

Provider
Hostmonster.com

Davis VP2 Plus

Davis Weatherlink.Com

iMac (Retina 4K, 21.5-inch, Late 2015)

Hostmonster.com